createdAt,value
2018-11-13T00:00:52.656Z,247.00
2018-11-13T00:03:55.141Z,248.80
2018-11-13T00:06:48.906Z,244.20
2018-11-13T00:09:45.136Z,245.37
2018-11-13T00:12:37.578Z,248.10
2018-11-13T00:15:32.582Z,237.27
2018-11-13T00:18:27.892Z,232.37
2018-11-13T00:21:21.463Z,237.97
2018-11-13T00:24:14.931Z,251.60
2018-11-13T00:27:10.340Z,250.97
2018-11-13T00:30:07.534Z,241.97
2018-11-13T00:33:02.813Z,241.50
2018-11-13T00:35:58.217Z,239.90
2018-11-13T00:38:51.770Z,269.87
2018-11-13T00:41:45.252Z,253.93
2018-11-13T00:44:38.925Z,238.33
2018-11-13T00:47:32.596Z,236.63
2018-11-13T00:50:28.264Z,248.30
2018-11-13T00:53:27.816Z,242.13
2018-11-13T00:56:18.627Z,249.57
2018-11-13T00:59:13.446Z,250.75
2018-11-13T01:02:07.781Z,252.47
2018-11-13T01:05:01.870Z,258.63
2018-11-13T01:07:55.774Z,271.80
2018-11-13T01:10:49.448Z,268.20
2018-11-13T01:13:42.912Z,274.30
2018-11-13T01:16:36.999Z,274.40
2018-11-13T01:19:30.560Z,290.53
2018-11-13T01:22:24.795Z,277.68
2018-11-13T01:25:19.212Z,291.33
2018-11-13T01:28:13.134Z,351.17
2018-11-13T01:31:11.094Z,293.23
2018-11-13T01:34:04.553Z,316.00
2018-11-13T01:36:58.426Z,325.03
2018-11-13T01:39:52.202Z,325.03
2018-11-13T01:42:46.180Z,298.60
2018-11-13T01:45:42.209Z,289.87
2018-11-13T01:48:35.675Z,327.20
2018-11-13T01:51:29.446Z,324.07
2018-11-13T01:54:23.480Z,297.87
2018-11-13T01:57:18.021Z,303.90
2018-11-13T02:00:26.746Z,322.40
2018-11-13T02:03:21.858Z,308.40
2018-11-13T02:06:15.932Z,310.97
2018-11-13T02:09:17.881Z,310.77
2018-11-13T02:12:09.830Z,300.43
2018-11-13T02:15:05.445Z,304.60
2018-11-13T02:18:02.705Z,300.57
2018-11-13T02:20:56.785Z,301.73
2018-11-13T02:23:50.965Z,281.13
2018-11-13T02:26:48.008Z,298.87
2018-11-13T02:29:38.514Z,297.30
2018-11-13T02:32:32.823Z,282.27
2018-11-13T02:35:26.401Z,261.00
2018-11-13T02:38:20.220Z,287.70
2018-11-13T02:41:16.739Z,270.47
2018-11-13T02:44:11.069Z,282.80
2018-11-13T02:47:04.645Z,267.40
2018-11-13T02:50:01.076Z,265.77
2018-11-13T02:52:55.270Z,259.77
2018-11-13T02:55:49.448Z,267.77
2018-11-13T02:58:43.328Z,299.27
2018-11-13T03:01:36.876Z,293.97
2018-11-13T03:04:32.199Z,256.30
2018-11-13T03:07:28.125Z,285.50
2018-11-13T03:10:23.848Z,262.77
2018-11-13T03:13:17.433Z,255.37
2018-11-13T03:16:13.319Z,266.20
2018-11-13T03:19:06.909Z,249.27
2018-11-13T03:22:01.380Z,249.17
2018-11-13T03:24:55.896Z,269.40
2018-11-13T03:27:50.289Z,252.83
2018-11-13T03:30:46.816Z,274.57
2018-11-13T03:33:40.613Z,364.77
2018-11-13T03:36:37.742Z,306.17
2018-11-13T03:39:31.618Z,256.00
2018-11-13T03:42:26.829Z,281.33
2018-11-13T03:45:20.912Z,276.37
2018-11-13T03:48:18.372Z,251.03
2018-11-13T03:51:12.563Z,274.10
2018-11-13T03:54:06.742Z,246.13
2018-11-13T03:57:00.712Z,236.87
2018-11-13T03:59:56.447Z,257.10
2018-11-13T04:02:50.406Z,242.07
2018-11-13T04:05:45.729Z,241.30
2018-11-13T04:08:40.117Z,244.33
2018-11-13T04:11:35.137Z,230.63
2018-11-13T04:14:29.195Z,232.03
2018-11-13T04:17:22.965Z,233.50
2018-11-13T04:20:22.541Z,221.57
2018-11-13T04:23:16.043Z,223.67
2018-11-13T04:26:09.717Z,212.10
2018-11-13T04:42:25.460Z,208.97
2018-11-13T04:45:20.577Z,205.30
2018-11-13T04:48:14.893Z,209.53
2018-11-13T04:51:09.250Z,206.03
2018-11-13T04:54:02.921Z,193.07
2018-11-13T04:56:58.743Z,208.53
2018-11-13T04:59:53.036Z,183.70
2018-11-13T05:02:47.735Z,194.40
2018-11-13T05:05:41.374Z,189.00
2018-11-13T05:22:25.697Z,167.00
2018-11-13T05:25:24.333Z,171.43
2018-11-13T05:28:54.875Z,173.10
2018-11-13T05:31:50.310Z,170.73
2018-11-13T05:34:45.648Z,175.53
2018-11-13T05:37:44.301Z,170.80
2018-11-13T05:40:43.287Z,162.27
2018-11-13T05:43:37.643Z,161.43
2018-11-13T05:46:41.975Z,154.07
2018-11-13T05:49:38.593Z,157.47
2018-11-13T05:52:36.594Z,157.10
2018-11-13T05:55:34.919Z,162.13
2018-11-13T05:58:30.403Z,150.53
2018-11-13T06:01:22.504Z,156.37
2018-11-13T06:04:19.527Z,146.93
2018-11-13T06:07:15.536Z,154.40
2018-11-13T06:10:16.667Z,150.80
2018-11-13T06:13:20.537Z,153.37
2018-11-13T06:16:14.858Z,147.97
2018-11-13T06:19:16.720Z,144.57
2018-11-13T06:22:12.333Z,140.30
2018-11-13T06:25:08.979Z,142.17
2018-11-13T06:28:25.215Z,141.77
2018-11-13T06:31:20.557Z,137.70
2018-11-13T06:34:17.714Z,136.20
2018-11-13T06:37:14.376Z,132.57
2018-11-13T06:40:10.029Z,146.73
2018-11-13T06:43:27.026Z,140.50
2018-11-13T06:46:25.208Z,135.27
2018-11-13T06:49:25.893Z,128.70
2018-11-13T06:52:29.547Z,125.67
2018-11-13T06:55:37.038Z,126.70
2018-11-13T06:58:30.799Z,124.50
2018-11-13T07:01:25.166Z,121.50
2018-11-13T07:04:20.231Z,112.85
2018-11-13T07:07:17.940Z,116.93
2018-11-13T07:10:14.066Z,119.27
2018-11-13T07:13:10.926Z,114.33
2018-11-13T07:16:18.111Z,122.70
2018-11-13T07:19:13.408Z,112.03
2018-11-13T07:22:10.010Z,121.80
2018-11-13T07:25:29.695Z,114.63
2018-11-13T07:28:18.289Z,119.00
2018-11-13T07:31:12.364Z,118.70
2018-11-13T07:34:10.662Z,125.87
2018-11-13T07:37:26.542Z,111.00
2018-11-13T07:44:13.460Z,103.40
2018-11-13T07:47:06.201Z,122.93
2018-11-13T07:50:04.056Z,112.13
2018-11-13T07:53:00.848Z,108.22
2018-11-13T07:55:55.378Z,97.50
2018-11-13T07:58:49.498Z,104.72
2018-11-13T08:01:44.136Z,101.13
2018-11-13T08:04:38.615Z,93.03
2018-11-13T08:07:37.166Z,82.40
2018-11-13T08:14:30.543Z,91.65
2018-11-13T08:17:59.646Z,91.50
2018-11-13T08:20:56.429Z,94.90
2018-11-13T08:23:59.204Z,95.17
2018-11-13T08:27:18.526Z,97.10
2018-11-13T08:30:34.524Z,104.50
2018-11-13T08:33:30.131Z,97.57
2018-11-13T08:36:25.526Z,83.97
2018-11-13T08:39:23.721Z,92.10
2018-11-13T08:42:15.223Z,74.23
2018-11-13T08:45:16.055Z,91.57
2018-11-13T08:48:11.454Z,98.50
2018-11-13T08:51:07.788Z,85.43
2018-11-13T08:54:12.758Z,92.43
2018-11-13T08:57:31.176Z,95.42
2018-11-13T09:00:29.238Z,82.90
2018-11-13T09:03:32.959Z,99.93
2018-11-13T09:07:16.532Z,90.57
2018-11-13T09:10:23.993Z,95.03
2018-11-13T09:13:25.974Z,95.00
2018-11-13T09:16:31.504Z,89.67
2018-11-13T09:19:25.606Z,95.47
2018-11-13T09:22:22.028Z,91.37
2018-11-13T09:26:14.146Z,93.17
2018-11-13T09:28:47.173Z,81.90
2018-11-13T09:31:42.159Z,88.37
2018-11-13T09:34:36.219Z,91.10
2018-11-13T09:37:31.082Z,89.67
2018-11-13T09:40:25.836Z,90.77
2018-11-13T09:43:21.968Z,92.50
2018-11-13T09:46:27.781Z,94.70
2018-11-13T09:50:06.111Z,93.17
2018-11-13T09:53:08.723Z,96.37
2018-11-13T09:56:10.735Z,110.27
2018-11-13T09:59:19.342Z,83.63
2018-11-13T10:02:18.239Z,89.20
2018-11-13T10:05:16.893Z,97.23
2018-11-13T10:08:33.825Z,90.47
2018-11-13T10:11:27.451Z,95.83
2018-11-13T10:14:30.234Z,88.60
2018-11-13T10:17:31.188Z,83.10
2018-11-13T10:20:43.182Z,81.90
2018-11-13T10:24:14.892Z,90.40
2018-11-13T10:27:33.781Z,87.50
2018-11-13T10:30:26.925Z,98.30
2018-11-13T10:33:24.700Z,96.10
2018-11-13T10:36:20.403Z,93.00
2018-11-13T10:39:36.603Z,94.63
2018-11-13T10:42:31.855Z,79.72
2018-11-13T10:45:38.461Z,108.75
2018-11-13T10:48:51.980Z,91.27
2018-11-13T10:52:19.847Z,88.60
2018-11-13T10:55:42.871Z,90.50
2018-11-13T10:58:41.236Z,85.10
2018-11-13T11:01:59.434Z,79.53
2018-11-13T11:05:45.646Z,78.87
2018-11-13T11:12:05.462Z,79.50
2018-11-13T11:15:22.301Z,76.00
2018-11-13T11:18:33.701Z,79.63
2018-11-13T11:29:59.554Z,77.37
2018-11-13T11:33:13.091Z,86.80
2018-11-13T11:36:14.634Z,77.40
2018-11-13T11:39:17.850Z,90.33
2018-11-13T11:42:36.787Z,75.93
2018-11-13T11:46:03.085Z,78.47
2018-11-13T11:49:21.292Z,80.20
2018-11-13T11:52:15.352Z,84.97
2018-11-13T11:55:15.990Z,93.52
2018-11-13T11:58:20.992Z,79.43
2018-11-13T12:01:44.669Z,71.60
2018-11-13T12:04:45.449Z,76.53
2018-11-13T12:07:40.147Z,80.65
2018-11-13T12:10:34.508Z,74.72
2018-11-13T12:13:34.048Z,79.58
2018-11-13T12:16:33.017Z,69.53
2018-11-13T12:19:28.382Z,75.37
2018-11-13T12:22:27.879Z,86.47
2018-11-13T12:25:24.448Z,79.13
2018-11-13T12:28:21.658Z,76.93
2018-11-13T12:31:22.186Z,93.93
2018-11-13T12:34:20.702Z,87.87
2018-11-13T12:37:23.562Z,85.60
2018-11-13T12:40:24.239Z,79.17
2018-11-13T12:43:16.497Z,90.80
2018-11-13T12:46:15.631Z,72.72
2018-11-13T12:49:18.300Z,93.57
2018-11-13T12:52:20.882Z,88.33
2018-11-13T12:55:27.119Z,89.70
2018-11-13T12:58:22.506Z,85.60
2018-11-13T13:01:18.173Z,86.72
2018-11-13T13:04:15.882Z,88.77
2018-11-13T13:07:17.113Z,100.33
2018-11-13T13:10:15.414Z,96.73
2018-11-13T13:13:12.370Z,96.73
2018-11-13T13:16:08.316Z,93.85
2018-11-13T13:19:06.616Z,96.53
2018-11-13T13:22:02.454Z,92.30
2018-11-13T13:24:57.734Z,88.67
2018-11-13T13:28:37.571Z,104.55
2018-11-13T13:31:34.570Z,109.00
2018-11-13T13:34:28.753Z,109.27
2018-11-13T13:37:22.748Z,112.77
2018-11-13T13:40:16.593Z,101.50
2018-11-13T13:43:14.266Z,93.33
2018-11-13T13:46:10.076Z,95.70
2018-11-13T13:49:07.024Z,102.83
2018-11-13T13:52:00.472Z,104.27
2018-11-13T13:54:55.288Z,94.63
2018-11-13T13:57:52.336Z,94.03
2018-11-13T14:00:46.443Z,108.53
2018-11-13T14:03:44.729Z,107.22
2018-11-13T14:06:40.095Z,95.10
2018-11-13T14:09:34.908Z,99.13
2018-11-13T14:12:31.860Z,115.70
2018-11-13T14:15:25.881Z,88.83
2018-11-13T14:18:19.405Z,100.70
2018-11-13T14:21:12.847Z,102.17
2018-11-13T14:24:06.569Z,120.17
2018-11-13T14:27:00.732Z,112.80
2018-11-13T14:29:55.200Z,100.50
2018-11-13T14:32:50.532Z,109.47
2018-11-13T14:35:44.982Z,110.90
2018-11-13T14:38:38.699Z,99.13
2018-11-13T14:41:32.979Z,97.60
2018-11-13T14:44:27.328Z,107.43
2018-11-13T14:47:20.896Z,114.73
2018-11-13T14:50:19.735Z,108.40
2018-11-13T14:53:14.441Z,107.97
2018-11-13T14:56:08.808Z,106.50
2018-11-13T14:59:04.411Z,105.03
2018-11-13T15:01:58.240Z,104.27
2018-11-13T15:04:52.161Z,109.83
2018-11-13T15:07:47.463Z,102.92
2018-11-13T15:10:57.237Z,87.60
2018-11-13T15:13:52.141Z,108.60
2018-11-13T15:16:46.015Z,106.57
2018-11-13T15:19:40.506Z,106.30
2018-11-13T15:22:34.282Z,100.03
2018-11-13T15:25:28.368Z,102.30
2018-11-13T15:28:21.931Z,94.83
2018-11-13T15:31:15.866Z,113.13
2018-11-13T15:34:09.785Z,98.43
2018-11-13T15:37:03.678Z,98.43
2018-11-13T15:39:57.137Z,88.00
2018-11-13T15:42:51.447Z,96.40
2018-11-13T15:45:45.198Z,108.80
2018-11-13T15:48:39.090Z,86.20
2018-11-13T15:51:32.592Z,94.97
2018-11-13T15:54:26.711Z,91.43
2018-11-13T15:57:24.170Z,105.27
2018-11-13T16:00:20.203Z,113.50
2018-11-13T16:03:31.689Z,107.23
2018-11-13T16:06:26.567Z,107.50
2018-11-13T16:09:22.421Z,112.47
2018-11-13T16:12:20.163Z,107.07
2018-11-13T16:15:13.136Z,110.93
2018-11-13T16:18:08.064Z,109.73
2018-11-13T16:21:01.692Z,113.52
2018-11-13T16:23:56.895Z,103.43
2018-11-13T16:26:52.651Z,93.37
2018-11-13T16:29:46.235Z,103.70
2018-11-13T16:32:40.390Z,104.63
2018-11-13T16:35:34.505Z,92.87
2018-11-13T16:38:29.400Z,105.70
2018-11-13T16:41:23.289Z,101.65
2018-11-13T16:44:17.788Z,98.22
2018-11-13T16:47:13.865Z,97.57
2018-11-13T16:50:11.425Z,95.07
2018-11-13T16:53:07.368Z,96.00
2018-11-13T16:56:09.010Z,104.80
2018-11-13T16:59:04.727Z,90.47
2018-11-13T17:01:58.423Z,95.27
2018-11-13T17:04:53.166Z,94.33
2018-11-13T17:07:49.755Z,103.13
2018-11-13T17:10:44.873Z,102.47
2018-11-13T17:13:38.932Z,94.70
2018-11-13T17:16:32.569Z,104.43
2018-11-13T17:19:26.272Z,109.93
2018-11-13T17:22:21.679Z,110.97
2018-11-13T17:25:19.857Z,118.97
2018-11-13T17:28:16.394Z,117.13
2018-11-13T17:31:10.438Z,122.47
2018-11-13T17:34:08.853Z,113.13
2018-11-13T17:37:00.181Z,126.80
2018-11-13T17:39:53.544Z,124.83
2018-11-13T17:42:48.254Z,126.37
2018-11-13T17:45:43.340Z,123.93
2018-11-13T17:48:37.714Z,132.30
2018-11-13T17:51:31.605Z,118.70
2018-11-13T17:54:25.902Z,130.23
2018-11-13T17:57:20.075Z,145.13
2018-11-13T18:00:23.929Z,137.40
2018-11-13T18:03:22.076Z,140.97
2018-11-13T18:06:13.733Z,130.27
2018-11-13T18:09:12.256Z,155.93
2018-11-13T18:12:06.005Z,146.33
2018-11-13T18:14:59.636Z,197.53
2018-11-13T18:17:54.316Z,161.77
2018-11-13T18:20:48.597Z,158.60
2018-11-13T18:23:42.553Z,157.47
2018-11-13T18:26:36.810Z,154.43
2018-11-13T18:29:34.024Z,157.23
2018-11-13T18:32:24.887Z,155.23
2018-11-13T18:35:20.233Z,146.07
2018-11-13T18:38:15.613Z,140.30
2018-11-13T18:41:09.725Z,131.53
2018-11-13T18:44:03.907Z,138.80
2018-11-13T18:46:58.092Z,129.67
2018-11-13T18:49:52.068Z,141.73
2018-11-13T18:52:45.925Z,129.60
2018-11-13T18:55:39.518Z,134.53
2018-11-13T18:58:40.697Z,137.10
2018-11-13T19:01:34.641Z,128.15
2018-11-13T19:04:29.338Z,135.30
2018-11-13T19:07:22.909Z,146.90
2018-11-13T19:11:00.314Z,134.80
2018-11-13T19:13:55.713Z,140.00
2018-11-13T19:16:51.387Z,138.25
2018-11-13T19:19:45.098Z,137.73
2018-11-13T19:22:39.912Z,128.50
2018-11-13T19:25:39.428Z,139.63
2018-11-13T19:28:28.684Z,148.37
2018-11-13T19:31:22.353Z,145.50
2018-11-13T19:34:16.126Z,143.83
2018-11-13T19:37:09.723Z,159.17
2018-11-13T19:40:05.107Z,153.70
2018-11-13T19:42:59.265Z,164.47
2018-11-13T19:45:52.500Z,158.80
2018-11-13T19:48:46.111Z,158.07
2018-11-13T19:51:40.050Z,172.00
2018-11-13T19:54:33.801Z,165.50
2018-11-13T19:57:27.936Z,168.67
2018-11-13T20:00:32.454Z,159.63
2018-11-13T20:03:22.979Z,173.70
2018-11-13T20:06:17.268Z,151.77
2018-11-13T20:09:12.473Z,154.10
2018-11-13T20:12:06.147Z,151.43
2018-11-13T20:15:01.147Z,146.33
2018-11-13T20:17:54.715Z,151.97
2018-11-13T20:20:48.492Z,137.33
2018-11-13T20:23:42.768Z,146.23
2018-11-13T20:26:36.653Z,137.28
2018-11-13T20:29:31.452Z,136.77
2018-11-13T20:32:26.555Z,143.97
2018-11-13T20:35:22.791Z,131.80
2018-11-13T20:38:16.768Z,144.73
2018-11-13T20:41:10.748Z,136.72
2018-11-13T20:44:08.904Z,132.25
2018-11-13T20:46:59.419Z,139.13
2018-11-13T20:49:53.297Z,143.57
2018-11-13T20:52:46.765Z,141.00
2018-11-13T20:55:40.230Z,138.97
2018-11-13T20:58:33.697Z,147.83
2018-11-13T21:01:27.573Z,132.13
2018-11-13T21:04:21.450Z,137.47
2018-11-13T21:07:18.384Z,142.00
2018-11-13T21:10:15.106Z,130.10
2018-11-13T21:13:09.022Z,146.97
2018-11-13T21:16:04.248Z,135.97
2018-11-13T21:18:58.006Z,134.50
2018-11-13T21:21:52.083Z,140.73
2018-11-13T21:24:45.925Z,129.43
2018-11-13T21:27:39.891Z,133.57
2018-11-13T21:30:33.229Z,146.13
2018-11-13T21:33:26.869Z,144.70
2018-11-13T21:36:20.751Z,132.37
2018-11-13T21:39:15.942Z,137.97
2018-11-13T21:42:11.367Z,132.10
2018-11-13T21:45:06.983Z,135.57
2018-11-13T21:48:03.419Z,131.20
2018-11-13T21:50:57.196Z,133.80
2018-11-13T21:53:52.502Z,147.53
2018-11-13T21:56:45.971Z,130.27
2018-11-13T21:59:39.845Z,134.83
2018-11-13T22:02:33.518Z,136.83
2018-11-13T22:05:28.135Z,127.80
2018-11-13T22:08:22.075Z,128.80
2018-11-13T22:11:16.890Z,130.10
2018-11-13T22:14:12.508Z,144.27
2018-11-13T22:17:08.223Z,138.00
2018-11-13T22:20:02.611Z,139.70
2018-11-13T22:22:57.721Z,137.73
2018-11-13T22:25:51.491Z,131.93
2018-11-13T22:28:45.493Z,132.83
2018-11-13T22:31:38.924Z,139.10
2018-11-13T22:34:32.817Z,141.93
2018-11-13T22:37:26.369Z,141.80
2018-11-13T22:40:23.967Z,163.30
2018-11-13T22:43:18.128Z,139.13
2018-11-13T22:46:13.851Z,157.03
2018-11-13T22:49:10.186Z,144.20
2018-11-13T22:52:03.955Z,178.07
2018-11-13T22:54:58.065Z,180.43
2018-11-13T22:57:53.027Z,157.10
2018-11-13T23:00:48.328Z,192.70
2018-11-13T23:03:41.717Z,207.87
2018-11-13T23:06:36.816Z,187.17
2018-11-13T23:09:30.090Z,209.03
2018-11-13T23:12:24.780Z,200.13
2018-11-13T23:15:22.191Z,189.90
2018-11-13T23:18:16.522Z,198.63
2018-11-13T23:21:10.094Z,190.60
2018-11-13T23:24:04.071Z,216.97
2018-11-13T23:26:57.744Z,203.17
2018-11-13T23:29:51.521Z,212.13
2018-11-13T23:32:51.594Z,234.87
2018-11-13T23:35:46.991Z,231.20
2018-11-13T23:38:40.729Z,221.30
2018-11-13T23:41:34.445Z,251.00
2018-11-13T23:44:28.548Z,227.40
2018-11-13T23:47:22.359Z,229.83
2018-11-13T23:50:18.551Z,220.37
2018-11-13T23:53:13.589Z,225.87
2018-11-13T23:56:07.361Z,238.20
2018-11-13T23:59:03.182Z,221.57
